Saturday, May 07, 2016
00:32 UTC
  |  Log In   |  Register Free
Airport Search:

Owatonna Degner Regional Airport
(KOWA)

Owatonna Degner Regional Airport Diagram
No Airport Diagram Available

FAA data valid effective Mar 31 2016 - May 26 2016 (unless otherwise noted).

 
 
 
 
 
 
 
 
 
 
 
 
 
 
Current Aviation Weather for KOWA

Weather Summary


The most recent METAR observation for OWA was updated at: 12:41 UTC
METAR for KOWA is not available. Closest METAR is for KFBL
KOWA  (most recent observation was updatred at 70:01 UTC)
070015Z AUTO 24016KT 10SM SCT100 30/06 A2970 RMK AO2

KFBL  (12.5 nm SE)   (most recent observation was updated at 70:00 UTC)
070006Z AUTO 24008KT 10SM CLR 29/11 A2968 RMK AO2

KACQ  (13.0 nm NE)   (most recent observation was updated at 70:01 UTC)
070015Z AUTO 24017KT 10SM BKN100 29/07 A2971 RMK AO2

TAF for KOWA is not available.
GlobalAir.com is loading additional information.
 Current Weather at OWA
90.0 F° (32.0 C°)

Southwest winds at 23.0 mph
Pressure:
29.71 in
Humidity:
16%
Wind:
Southwest at 23.0 mph
Dew Point:
37.4 F° (3.0 C°)
Visibility:
10.00 mi
OWA NOAA Radar




Find All Airport Services Find A Hotel Find A Rental Car Find A Golf Course Find A Restaurant $100 Hamburger



Airport Weather Forecast for KOWA

Translated METAR for KOWA (0015 UTC)
METAR:
KOWA 070015Z AUTO 24016KT 10SM SCT100 30/06 A2970 RMK AO2
Conditions at:
KOWA (Owatonna Degner Rgnl, MN) observed 0015 UTC 06 May 2016
Temperature:
30°C (86°F)
Dewpoint:
6°C (42.8°F) [RH = 22]
Pressure:
29.7 inches Hg (1005.8 mb)
Winds:
from the WSW (240 degrees) at 18.4 mph (16 knots: 8.2 m/s)
Visibility:
10 mile(s)
Ceiling:
at least 12,000 feet AGL
Clouds:
Scattered Clouds at 10,000 feet AGL
Remarks:
site is un-manned
site is automated and HAS a precipitation sensor

Translated TAF for TAF for OWA is not available. Refer to local area forecast.
FBO's on the Field
FBO Company Facility Photos Services Transportation Aviation Fuel Prices: Prices include tax
Catering Weather Repair Courtesy Rental Type 100LL JetA JetA+ MOGAS 8087
 
Owatonna Degner Regional Airport

This FBO has not yet been rated
FS:Avfuel
Last Updated: Apr-20
Login to update fuel prices
SS:
Contact Owatonna Degner Regional AirportMore FBO Information
 
Add another FBO Facility Photos Catering Weather Repair Courtesy Rental Type 100LL JetA JetA+ MOGAS 8087
Services Transportation Aviation Fuel Prices: Prices include tax


model-print
model-print
model-print
model-print